sensor_id;sensor_type;location;lat;lon;timestamp;P1;durP1;ratioP1;P2;durP2;ratioP2
3547;SDS011;1788;49.400;11.092;2023-02-19T00:00:00;7.80;;;4.83;;
3547;SDS011;1788;49.400;11.092;2023-02-19T00:02:26;4.90;;;4.23;;
3547;SDS011;1788;49.400;11.092;2023-02-19T00:04:53;5.37;;;4.33;;
3547;SDS011;1788;49.400;11.092;2023-02-19T00:07:20;4.77;;;3.63;;
3547;SDS011;1788;49.400;11.092;2023-02-19T00:09:47;4.63;;;3.50;;
3547;SDS011;1788;49.400;11.092;2023-02-19T00:12:14;5.10;;;3.93;;
3547;SDS011;1788;49.400;11.092;2023-02-19T00:14:41;3.87;;;3.67;;
3547;SDS011;1788;49.400;11.092;2023-02-19T00:17:08;3.73;;;3.43;;
3547;SDS011;1788;49.400;11.092;2023-02-19T00:19:35;4.60;;;3.90;;
3547;SDS011;1788;49.400;11.092;2023-02-19T00:22:02;6.13;;;3.90;;
3547;SDS011;1788;49.400;11.092;2023-02-19T00:24:29;4.13;;;3.50;;
3547;SDS011;1788;49.400;11.092;2023-02-19T00:26:56;4.07;;;3.43;;
3547;SDS011;1788;49.400;11.092;2023-02-19T00:29:23;4.47;;;3.30;;
3547;SDS011;1788;49.400;11.092;2023-02-19T00:31:50;4.23;;;3.53;;
3547;SDS011;1788;49.400;11.092;2023-02-19T00:34:16;3.97;;;3.03;;
3547;SDS011;1788;49.400;11.092;2023-02-19T00:36:43;5.23;;;3.57;;
3547;SDS011;1788;49.400;11.092;2023-02-19T00:39:15;3.33;;;3.03;;
3547;SDS011;1788;49.400;11.092;2023-02-19T00:41:37;4.37;;;3.30;;
3547;SDS011;1788;49.400;11.092;2023-02-19T00:44:06;3.43;;;3.10;;
3547;SDS011;1788;49.400;11.092;2023-02-19T00:48:58;5.50;;;3.90;;
3547;SDS011;1788;49.400;11.092;2023-02-19T00:51:26;5.50;;;3.57;;
3547;SDS011;1788;49.400;11.092;2023-02-19T00:53:51;6.07;;;4.20;;
3547;SDS011;1788;49.400;11.092;2023-02-19T00:56:18;4.93;;;3.70;;
3547;SDS011;1788;49.400;11.092;2023-02-19T00:58:45;4.77;;;4.13;;
3547;SDS011;1788;49.400;11.092;2023-02-19T01:01:12;3.53;;;3.33;;
3547;SDS011;1788;49.400;11.092;2023-02-19T01:03:38;4.47;;;3.73;;
3547;SDS011;1788;49.400;11.092;2023-02-19T01:06:06;4.30;;;3.93;;
3547;SDS011;1788;49.400;11.092;2023-02-19T01:08:32;6.30;;;4.13;;
3547;SDS011;1788;49.400;11.092;2023-02-19T01:10:59;5.20;;;3.93;;
3547;SDS011;1788;49.400;11.092;2023-02-19T01:13:25;5.47;;;3.83;;
3547;SDS011;1788;49.400;11.092;2023-02-19T01:15:52;5.03;;;4.00;;
3547;SDS011;1788;49.400;11.092;2023-02-19T01:18:19;4.37;;;4.03;;
3547;SDS011;1788;49.400;11.092;2023-02-19T01:20:45;5.80;;;3.77;;
3547;SDS011;1788;49.400;11.092;2023-02-19T01:23:12;4.73;;;4.43;;
3547;SDS011;1788;49.400;11.092;2023-02-19T01:25:39;6.83;;;4.07;;
3547;SDS011;1788;49.400;11.092;2023-02-19T01:28:05;6.00;;;4.07;;
3547;SDS011;1788;49.400;11.092;2023-02-19T01:32:58;6.33;;;4.83;;
3547;SDS011;1788;49.400;11.092;2023-02-19T01:35:25;4.87;;;4.20;;
3547;SDS011;1788;49.400;11.092;2023-02-19T01:37:51;7.37;;;4.53;;
3547;SDS011;1788;49.400;11.092;2023-02-19T01:40:18;4.57;;;3.97;;
3547;SDS011;1788;49.400;11.092;2023-02-19T01:42:45;4.87;;;4.37;;
3547;SDS011;1788;49.400;11.092;2023-02-19T01:45:14;6.07;;;4.20;;
3547;SDS011;1788;49.400;11.092;2023-02-19T01:47:38;8.30;;;4.90;;
3547;SDS011;1788;49.400;11.092;2023-02-19T01:50:05;6.07;;;4.50;;
3547;SDS011;1788;49.400;11.092;2023-02-19T01:52:33;5.83;;;4.77;;
3547;SDS011;1788;49.400;11.092;2023-02-19T01:54:59;5.23;;;3.70;;
3547;SDS011;1788;49.400;11.092;2023-02-19T01:57:25;6.07;;;4.13;;
3547;SDS011;1788;49.400;11.092;2023-02-19T01:59:54;5.63;;;4.23;;
3547;SDS011;1788;49.400;11.092;2023-02-19T02:02:18;5.73;;;4.30;;
3547;SDS011;1788;49.400;11.092;2023-02-19T02:04:45;5.17;;;4.00;;
3547;SDS011;1788;49.400;11.092;2023-02-19T02:07:11;3.77;;;3.60;;
3547;SDS011;1788;49.400;11.092;2023-02-19T02:09:38;5.23;;;3.90;;
3547;SDS011;1788;49.400;11.092;2023-02-19T02:12:05;4.53;;;3.67;;
3547;SDS011;1788;49.400;11.092;2023-02-19T02:14:34;5.50;;;4.00;;
3547;SDS011;1788;49.400;11.092;2023-02-19T02:38:59;2.57;;;2.37;;
3547;SDS011;1788;49.400;11.092;2023-02-19T02:41:26;3.43;;;2.50;;
3547;SDS011;1788;49.400;11.092;2023-02-19T02:43:53;2.33;;;2.10;;
3547;SDS011;1788;49.400;11.092;2023-02-19T02:46:22;2.60;;;2.27;;
3547;SDS011;1788;49.400;11.092;2023-02-19T02:48:48;2.70;;;2.50;;
3547;SDS011;1788;49.400;11.092;2023-02-19T02:56:07;3.00;;;2.10;;
3547;SDS011;1788;49.400;11.092;2023-02-19T02:58:34;2.93;;;2.40;;
3547;SDS011;1788;49.400;11.092;2023-02-19T03:03:27;2.30;;;2.10;;
3547;SDS011;1788;49.400;11.092;2023-02-19T03:05:55;2.50;;;2.30;;
3547;SDS011;1788;49.400;11.092;2023-02-19T03:08:22;2.77;;;2.57;;
3547;SDS011;1788;49.400;11.092;2023-02-19T03:13:14;2.83;;;2.60;;
3547;SDS011;1788;49.400;11.092;2023-02-19T03:15:42;2.50;;;2.30;;
3547;SDS011;1788;49.400;11.092;2023-02-19T03:18:07;2.63;;;1.93;;
3547;SDS011;1788;49.400;11.092;2023-02-19T03:20:35;3.00;;;2.37;;
3547;SDS011;1788;49.400;11.092;2023-02-19T03:23:01;2.40;;;2.20;;
3547;SDS011;1788;49.400;11.092;2023-02-19T03:25:29;3.27;;;2.70;;
3547;SDS011;1788;49.400;11.092;2023-02-19T03:27:54;2.40;;;2.20;;
3547;SDS011;1788;49.400;11.092;2023-02-19T03:30:22;2.67;;;2.10;;
3547;SDS011;1788;49.400;11.092;2023-02-19T03:32:50;2.43;;;2.23;;
3547;SDS011;1788;49.400;11.092;2023-02-19T03:35:17;3.03;;;2.10;;
3547;SDS011;1788;49.400;11.092;2023-02-19T03:37:44;3.70;;;2.57;;
3547;SDS011;1788;49.400;11.092;2023-02-19T03:40:09;2.33;;;2.13;;
3547;SDS011;1788;49.400;11.092;2023-02-19T03:42:38;3.60;;;2.13;;
3547;SDS011;1788;49.400;11.092;2023-02-19T04:02:10;2.30;;;2.10;;
3547;SDS011;1788;49.400;11.092;2023-02-19T04:04:37;1.77;;;1.67;;
3547;SDS011;1788;49.400;11.092;2023-02-19T04:07:02;2.50;;;2.30;;
3547;SDS011;1788;49.400;11.092;2023-02-19T04:09:29;2.67;;;2.07;;
3547;SDS011;1788;49.400;11.092;2023-02-19T04:11:55;1.90;;;1.80;;
3547;SDS011;1788;49.400;11.092;2023-02-19T04:14:23;2.17;;;2.00;;
3547;SDS011;1788;49.400;11.092;2023-02-19T04:16:50;2.63;;;2.43;;
3547;SDS011;1788;49.400;11.092;2023-02-19T04:19:17;2.50;;;2.30;;
3547;SDS011;1788;49.400;11.092;2023-02-19T04:21:42;3.40;;;2.40;;
3547;SDS011;1788;49.400;11.092;2023-02-19T04:24:11;3.37;;;2.50;;
3547;SDS011;1788;49.400;11.092;2023-02-19T04:26:36;4.43;;;2.50;;
3547;SDS011;1788;49.400;11.092;2023-02-19T04:29:02;3.17;;;2.40;;
3547;SDS011;1788;49.400;11.092;2023-02-19T04:31:29;2.90;;;2.60;;
3547;SDS011;1788;49.400;11.092;2023-02-19T04:33:56;2.90;;;2.60;;
3547;SDS011;1788;49.400;11.092;2023-02-19T04:36:23;3.23;;;3.03;;
3547;SDS011;1788;49.400;11.092;2023-02-19T04:38:49;2.87;;;2.70;;
3547;SDS011;1788;49.400;11.092;2023-02-19T04:41:16;2.87;;;2.67;;
3547;SDS011;1788;49.400;11.092;2023-02-19T04:43:42;2.93;;;2.60;;
3547;SDS011;1788;49.400;11.092;2023-02-19T04:46:09;4.17;;;2.93;;
3547;SDS011;1788;49.400;11.092;2023-02-19T04:48:36;3.87;;;3.10;;
3547;SDS011;1788;49.400;11.092;2023-02-19T04:53:29;3.07;;;2.87;;
3547;SDS011;1788;49.400;11.092;2023-02-19T04:55:55;3.93;;;3.10;;
3547;SDS011;1788;49.400;11.092;2023-02-19T04:58:22;2.93;;;2.33;;
3547;SDS011;1788;49.400;11.092;2023-02-19T05:03:15;2.97;;;2.77;;
3547;SDS011;1788;49.400;11.092;2023-02-19T05:05:42;2.47;;;2.27;;
3547;SDS011;1788;49.400;11.092;2023-02-19T05:08:08;4.03;;;3.23;;
3547;SDS011;1788;49.400;11.092;2023-02-19T05:10:35;3.37;;;3.10;;
3547;SDS011;1788;49.400;11.092;2023-02-19T05:13:02;3.73;;;2.87;;
3547;SDS011;1788;49.400;11.092;2023-02-19T05:15:28;3.37;;;2.97;;
3547;SDS011;1788;49.400;11.092;2023-02-19T05:17:55;2.77;;;2.57;;
3547;SDS011;1788;49.400;11.092;2023-02-19T05:20:22;2.53;;;2.33;;
3547;SDS011;1788;49.400;11.092;2023-02-19T05:22:48;3.67;;;2.83;;
3547;SDS011;1788;49.400;11.092;2023-02-19T05:25:15;2.67;;;2.47;;
3547;SDS011;1788;49.400;11.092;2023-02-19T05:27:41;3.47;;;2.13;;
3547;SDS011;1788;49.400;11.092;2023-02-19T05:30:08;2.80;;;2.60;;
3547;SDS011;1788;49.400;11.092;2023-02-19T05:32:35;4.13;;;2.67;;
3547;SDS011;1788;49.400;11.092;2023-02-19T05:35:02;2.40;;;2.20;;
3547;SDS011;1788;49.400;11.092;2023-02-19T05:37:29;3.67;;;2.90;;
3547;SDS011;1788;49.400;11.092;2023-02-19T05:39:56;2.90;;;2.30;;
3547;SDS011;1788;49.400;11.092;2023-02-19T05:42:23;3.17;;;2.50;;
3547;SDS011;1788;49.400;11.092;2023-02-19T05:44:50;2.13;;;1.97;;
3547;SDS011;1788;49.400;11.092;2023-02-19T05:47:16;2.83;;;2.00;;
3547;SDS011;1788;49.400;11.092;2023-02-19T05:49:44;1.97;;;1.87;;
3547;SDS011;1788;49.400;11.092;2023-02-19T05:52:10;2.70;;;2.50;;
3547;SDS011;1788;49.400;11.092;2023-02-19T05:54:37;2.70;;;2.20;;
3547;SDS011;1788;49.400;11.092;2023-02-19T05:57:03;2.73;;;2.60;;
3547;SDS011;1788;49.400;11.092;2023-02-19T05:59:30;2.50;;;2.30;;
3547;SDS011;1788;49.400;11.092;2023-02-19T06:01:57;2.63;;;2.13;;
3547;SDS011;1788;49.400;11.092;2023-02-19T06:04:24;3.40;;;2.60;;
3547;SDS011;1788;49.400;11.092;2023-02-19T06:06:51;3.70;;;2.03;;
3547;SDS011;1788;49.400;11.092;2023-02-19T06:09:18;2.30;;;2.10;;
3547;SDS011;1788;49.400;11.092;2023-02-19T06:11:45;3.10;;;2.90;;
3547;SDS011;1788;49.400;11.092;2023-02-19T06:14:12;2.50;;;2.30;;
3547;SDS011;1788;49.400;11.092;2023-02-19T06:16:38;3.23;;;2.13;;
3547;SDS011;1788;49.400;11.092;2023-02-19T06:19:05;2.57;;;2.37;;
3547;SDS011;1788;49.400;11.092;2023-02-19T06:21:32;2.60;;;2.40;;
3547;SDS011;1788;49.400;11.092;2023-02-19T06:24:03;3.17;;;2.80;;
3547;SDS011;1788;49.400;11.092;2023-02-19T06:26:26;2.47;;;2.30;;
3547;SDS011;1788;49.400;11.092;2023-02-19T06:28:53;2.80;;;2.60;;
3547;SDS011;1788;49.400;11.092;2023-02-19T06:31:21;2.77;;;2.40;;
3547;SDS011;1788;49.400;11.092;2023-02-19T06:33:47;2.90;;;2.37;;
3547;SDS011;1788;49.400;11.092;2023-02-19T06:36:15;3.30;;;3.10;;
3547;SDS011;1788;49.400;11.092;2023-02-19T06:38:42;3.00;;;2.73;;
3547;SDS011;1788;49.400;11.092;2023-02-19T06:41:09;3.17;;;2.77;;
3547;SDS011;1788;49.400;11.092;2023-02-19T06:43:36;2.53;;;2.33;;
3547;SDS011;1788;49.400;11.092;2023-02-19T06:46:03;3.10;;;2.20;;
3547;SDS011;1788;49.400;11.092;2023-02-19T06:48:29;3.83;;;2.20;;
3547;SDS011;1788;49.400;11.092;2023-02-19T06:50:56;2.37;;;2.20;;
3547;SDS011;1788;49.400;11.092;2023-02-19T06:53:22;2.47;;;2.27;;
3547;SDS011;1788;49.400;11.092;2023-02-19T06:58:16;2.47;;;2.30;;
3547;SDS011;1788;49.400;11.092;2023-02-19T07:00:44;2.63;;;2.00;;
3547;SDS011;1788;49.400;11.092;2023-02-19T07:03:12;2.00;;;1.90;;
3547;SDS011;1788;49.400;11.092;2023-02-19T07:05:38;2.60;;;2.27;;
3547;SDS011;1788;49.400;11.092;2023-02-19T07:08:06;1.93;;;1.83;;
3547;SDS011;1788;49.400;11.092;2023-02-19T07:10:32;2.57;;;2.37;;
3547;SDS011;1788;49.400;11.092;2023-02-19T07:12:59;2.23;;;2.03;;
3547;SDS011;1788;49.400;11.092;2023-02-19T07:15:26;2.60;;;2.37;;
3547;SDS011;1788;49.400;11.092;2023-02-19T07:17:52;3.07;;;2.40;;
3547;SDS011;1788;49.400;11.092;2023-02-19T07:20:20;2.43;;;2.17;;
3547;SDS011;1788;49.400;11.092;2023-02-19T07:22:46;2.60;;;2.40;;
3547;SDS011;1788;49.400;11.092;2023-02-19T07:25:14;2.50;;;2.27;;
3547;SDS011;1788;49.400;11.092;2023-02-19T07:27:42;2.47;;;2.17;;
3547;SDS011;1788;49.400;11.092;2023-02-19T07:30:10;2.80;;;2.60;;
3547;SDS011;1788;49.400;11.092;2023-02-19T07:32:39;2.63;;;2.43;;
3547;SDS011;1788;49.400;11.092;2023-02-19T07:35:03;3.37;;;2.50;;
3547;SDS011;1788;49.400;11.092;2023-02-19T07:37:29;2.33;;;2.13;;
3547;SDS011;1788;49.400;11.092;2023-02-19T07:39:56;3.17;;;2.30;;
3547;SDS011;1788;49.400;11.092;2023-02-19T07:42:23;2.57;;;2.33;;
3547;SDS011;1788;49.400;11.092;2023-02-19T07:44:49;2.97;;;2.30;;
3547;SDS011;1788;49.400;11.092;2023-02-19T07:47:16;2.33;;;1.93;;
3547;SDS011;1788;49.400;11.092;2023-02-19T07:49:43;2.97;;;2.40;;
3547;SDS011;1788;49.400;11.092;2023-02-19T07:52:10;3.10;;;2.83;;
3547;SDS011;1788;49.400;11.092;2023-02-19T07:54:36;2.33;;;2.13;;
3547;SDS011;1788;49.400;11.092;2023-02-19T07:57:03;2.33;;;2.13;;
3547;SDS011;1788;49.400;11.092;2023-02-19T07:59:30;2.23;;;2.03;;
3547;SDS011;1788;49.400;11.092;2023-02-19T08:01:57;1.80;;;1.70;;
3547;SDS011;1788;49.400;11.092;2023-02-19T08:04:24;2.03;;;1.67;;
3547;SDS011;1788;49.400;11.092;2023-02-19T08:06:51;1.70;;;1.60;;
3547;SDS011;1788;49.400;11.092;2023-02-19T08:09:18;2.23;;;1.87;;
3547;SDS011;1788;49.400;11.092;2023-02-19T08:11:45;1.53;;;1.43;;
3547;SDS011;1788;49.400;11.092;2023-02-19T08:14:11;2.17;;;1.77;;
3547;SDS011;1788;49.400;11.092;2023-02-19T08:16:39;2.00;;;1.67;;
3547;SDS011;1788;49.400;11.092;2023-02-19T08:19:05;2.30;;;2.10;;
3547;SDS011;1788;49.400;11.092;2023-02-19T08:21:32;1.80;;;1.70;;
3547;SDS011;1788;49.400;11.092;2023-02-19T08:23:58;2.53;;;2.33;;
3547;SDS011;1788;49.400;11.092;2023-02-19T08:26:25;1.93;;;1.80;;
3547;SDS011;1788;49.400;11.092;2023-02-19T08:28:52;1.93;;;1.43;;
3547;SDS011;1788;49.400;11.092;2023-02-19T08:31:18;1.73;;;1.57;;
3547;SDS011;1788;49.400;11.092;2023-02-19T08:33:45;1.77;;;1.67;;
3547;SDS011;1788;49.400;11.092;2023-02-19T08:36:11;3.13;;;2.87;;
3547;SDS011;1788;49.400;11.092;2023-02-19T08:38:38;1.83;;;1.70;;
3547;SDS011;1788;49.400;11.092;2023-02-19T08:41:09;1.47;;;1.37;;
3547;SDS011;1788;49.400;11.092;2023-02-19T08:43:34;1.03;;;0.93;;
3547;SDS011;1788;49.400;11.092;2023-02-19T08:46:01;1.70;;;1.10;;
3547;SDS011;1788;49.400;11.092;2023-02-19T08:48:27;1.30;;;1.20;;
3547;SDS011;1788;49.400;11.092;2023-02-19T08:50:55;1.10;;;0.90;;
3547;SDS011;1788;49.400;11.092;2023-02-19T08:53:21;1.37;;;1.27;;
3547;SDS011;1788;49.400;11.092;2023-02-19T08:55:47;1.33;;;1.23;;
3547;SDS011;1788;49.400;11.092;2023-02-19T08:58:14;2.43;;;1.53;;
3547;SDS011;1788;49.400;11.092;2023-02-19T09:00:40;1.47;;;1.40;;
3547;SDS011;1788;49.400;11.092;2023-02-19T09:03:07;3.13;;;1.40;;
3547;SDS011;1788;49.400;11.092;2023-02-19T09:05:34;1.40;;;1.30;;
3547;SDS011;1788;49.400;11.092;2023-02-19T09:08:00;1.73;;;1.63;;
3547;SDS011;1788;49.400;11.092;2023-02-19T09:10:27;1.37;;;1.30;;
3547;SDS011;1788;49.400;11.092;2023-02-19T09:12:53;1.30;;;1.20;;
3547;SDS011;1788;49.400;11.092;2023-02-19T09:15:20;2.47;;;1.40;;
3547;SDS011;1788;49.400;11.092;2023-02-19T09:20:14;1.73;;;1.10;;
3547;SDS011;1788;49.400;11.092;2023-02-19T09:22:41;1.63;;;1.37;;
3547;SDS011;1788;49.400;11.092;2023-02-19T09:25:07;1.17;;;1.07;;
3547;SDS011;1788;49.400;11.092;2023-02-19T09:27:34;1.43;;;1.33;;
3547;SDS011;1788;49.400;11.092;2023-02-19T09:30:00;1.40;;;1.30;;
3547;SDS011;1788;49.400;11.092;2023-02-19T09:32:29;1.20;;;1.10;;
3547;SDS011;1788;49.400;11.092;2023-02-19T09:34:54;1.20;;;1.10;;
3547;SDS011;1788;49.400;11.092;2023-02-19T09:37:23;1.83;;;1.73;;
3547;SDS011;1788;49.400;11.092;2023-02-19T09:39:47;2.30;;;1.70;;
3547;SDS011;1788;49.400;11.092;2023-02-19T09:42:14;1.43;;;1.33;;
3547;SDS011;1788;49.400;11.092;2023-02-19T09:44:41;2.60;;;1.87;;
3547;SDS011;1788;49.400;11.092;2023-02-19T09:47:11;2.03;;;1.90;;
3547;SDS011;1788;49.400;11.092;2023-02-19T09:52:02;3.17;;;2.30;;
3547;SDS011;1788;49.400;11.092;2023-02-19T09:54:29;3.73;;;2.23;;
3547;SDS011;1788;49.400;11.092;2023-02-19T09:56:55;2.57;;;2.13;;
3547;SDS011;1788;49.400;11.092;2023-02-19T09:59:22;3.23;;;1.70;;
3547;SDS011;1788;49.400;11.092;2023-02-19T10:01:48;1.90;;;1.80;;
3547;SDS011;1788;49.400;11.092;2023-02-19T10:04:15;2.73;;;1.73;;
3547;SDS011;1788;49.400;11.092;2023-02-19T10:06:42;1.80;;;1.73;;
3547;SDS011;1788;49.400;11.092;2023-02-19T10:11:36;1.97;;;1.80;;
3547;SDS011;1788;49.400;11.092;2023-02-19T10:14:03;2.40;;;2.20;;
3547;SDS011;1788;49.400;11.092;2023-02-19T10:16:29;2.07;;;1.97;;
3547;SDS011;1788;49.400;11.092;2023-02-19T10:18:56;4.77;;;3.07;;
3547;SDS011;1788;49.400;11.092;2023-02-19T10:21:23;1.80;;;1.70;;
3547;SDS011;1788;49.400;11.092;2023-02-19T10:23:50;4.37;;;2.83;;
3547;SDS011;1788;49.400;11.092;2023-02-19T10:26:16;2.70;;;2.17;;
3547;SDS011;1788;49.400;11.092;2023-02-19T10:28:42;1.97;;;1.73;;
3547;SDS011;1788;49.400;11.092;2023-02-19T10:33:46;2.27;;;2.10;;
3547;SDS011;1788;49.400;11.092;2023-02-19T10:38:30;2.67;;;2.30;;
3547;SDS011;1788;49.400;11.092;2023-02-19T10:40:58;2.33;;;2.17;;
3547;SDS011;1788;49.400;11.092;2023-02-19T10:43:24;3.17;;;2.50;;
3547;SDS011;1788;49.400;11.092;2023-02-19T10:45:49;2.07;;;1.93;;
3547;SDS011;1788;49.400;11.092;2023-02-19T10:48:20;2.47;;;2.10;;
3547;SDS011;1788;49.400;11.092;2023-02-19T10:50:42;3.23;;;2.87;;
3547;SDS011;1788;49.400;11.092;2023-02-19T10:53:13;2.00;;;1.90;;
3547;SDS011;1788;49.400;11.092;2023-02-19T10:55:36;3.67;;;2.43;;
3547;SDS011;1788;49.400;11.092;2023-02-19T11:00:29;2.57;;;2.10;;
3547;SDS011;1788;49.400;11.092;2023-02-19T11:05:23;2.67;;;2.33;;
3547;SDS011;1788;49.400;11.092;2023-02-19T11:07:51;2.80;;;1.80;;
3547;SDS011;1788;49.400;11.092;2023-02-19T11:12:45;2.23;;;2.03;;
3547;SDS011;1788;49.400;11.092;2023-02-19T11:17:36;2.30;;;2.10;;
3547;SDS011;1788;49.400;11.092;2023-02-19T11:27:24;3.43;;;2.43;;
3547;SDS011;1788;49.400;11.092;2023-02-19T11:29:51;2.23;;;2.03;;
3547;SDS011;1788;49.400;11.092;2023-02-19T11:34:44;3.47;;;2.50;;
3547;SDS011;1788;49.400;11.092;2023-02-19T11:37:11;3.53;;;2.33;;
3547;SDS011;1788;49.400;11.092;2023-02-19T11:39:38;2.83;;;2.60;;
3547;SDS011;1788;49.400;11.092;2023-02-19T11:54:20;3.77;;;2.90;;
3547;SDS011;1788;49.400;11.092;2023-02-19T11:56:43;7.30;;;2.90;;
3547;SDS011;1788;49.400;11.092;2023-02-19T12:04:09;2.77;;;2.37;;
3547;SDS011;1788;49.400;11.092;2023-02-19T12:40:48;3.90;;;2.40;;
3547;SDS011;1788;49.400;11.092;2023-02-19T12:45:40;7.23;;;3.60;;
3547;SDS011;1788;49.400;11.092;2023-02-19T12:48:08;5.87;;;3.63;;
3547;SDS011;1788;49.400;11.092;2023-02-19T12:50:31;5.03;;;4.73;;
3547;SDS011;1788;49.400;11.092;2023-02-19T12:53:00;2.70;;;2.50;;
3547;SDS011;1788;49.400;11.092;2023-02-19T12:55:25;2.17;;;2.00;;
3547;SDS011;1788;49.400;11.092;2023-02-19T12:57:51;3.23;;;2.60;;
3547;SDS011;1788;49.400;11.092;2023-02-19T13:02:47;3.70;;;3.10;;
3547;SDS011;1788;49.400;11.092;2023-02-19T13:07:38;3.97;;;2.83;;
3547;SDS011;1788;49.400;11.092;2023-02-19T13:14:58;2.20;;;2.00;;
3547;SDS011;1788;49.400;11.092;2023-02-19T13:17:27;4.07;;;2.00;;
3547;SDS011;1788;49.400;11.092;2023-02-19T13:19:51;3.63;;;2.47;;
3547;SDS011;1788;49.400;11.092;2023-02-19T13:24:43;2.70;;;2.03;;
3547;SDS011;1788;49.400;11.092;2023-02-19T13:36:58;3.63;;;3.37;;
3547;SDS011;1788;49.400;11.092;2023-02-19T13:39:25;2.43;;;2.13;;
3547;SDS011;1788;49.400;11.092;2023-02-19T13:41:53;2.83;;;2.63;;
3547;SDS011;1788;49.400;11.092;2023-02-19T13:44:20;3.43;;;2.57;;
3547;SDS011;1788;49.400;11.092;2023-02-19T13:46:47;2.87;;;2.53;;
3547;SDS011;1788;49.400;11.092;2023-02-19T13:51:45;3.27;;;2.20;;
3547;SDS011;1788;49.400;11.092;2023-02-19T14:03:53;6.20;;;3.20;;
3547;SDS011;1788;49.400;11.092;2023-02-19T14:06:19;2.53;;;2.17;;
3547;SDS011;1788;49.400;11.092;2023-02-19T14:08:48;3.27;;;1.93;;
3547;SDS011;1788;49.400;11.092;2023-02-19T14:11:13;3.53;;;1.97;;
3547;SDS011;1788;49.400;11.092;2023-02-19T14:16:24;3.43;;;2.40;;
3547;SDS011;1788;49.400;11.092;2023-02-19T14:23:27;3.30;;;2.20;;
3547;SDS011;1788;49.400;11.092;2023-02-19T14:28:22;3.13;;;2.23;;
3547;SDS011;1788;49.400;11.092;2023-02-19T14:30:49;3.03;;;2.33;;
3547;SDS011;1788;49.400;11.092;2023-02-19T14:33:15;2.87;;;2.30;;
3547;SDS011;1788;49.400;11.092;2023-02-19T14:35:42;2.93;;;2.60;;
3547;SDS011;1788;49.400;11.092;2023-02-19T14:40:35;2.13;;;1.97;;
3547;SDS011;1788;49.400;11.092;2023-02-19T14:43:01;2.47;;;1.77;;
3547;SDS011;1788;49.400;11.092;2023-02-19T14:45:27;2.80;;;1.93;;
3547;SDS011;1788;49.400;11.092;2023-02-19T14:47:54;2.53;;;1.93;;
3547;SDS011;1788;49.400;11.092;2023-02-19T14:52:48;3.47;;;2.40;;
3547;SDS011;1788;49.400;11.092;2023-02-19T14:57:42;3.53;;;2.77;;
3547;SDS011;1788;49.400;11.092;2023-02-19T15:02:40;4.70;;;2.73;;
3547;SDS011;1788;49.400;11.092;2023-02-19T15:05:05;4.97;;;2.07;;
3547;SDS011;1788;49.400;11.092;2023-02-19T15:07:30;3.67;;;2.10;;
3547;SDS011;1788;49.400;11.092;2023-02-19T15:09:56;2.50;;;2.10;;
3547;SDS011;1788;49.400;11.092;2023-02-19T15:14:50;4.67;;;2.83;;
3547;SDS011;1788;49.400;11.092;2023-02-19T15:19:43;4.17;;;2.37;;
3547;SDS011;1788;49.400;11.092;2023-02-19T15:24:36;2.70;;;1.87;;
3547;SDS011;1788;49.400;11.092;2023-02-19T15:27:03;4.93;;;2.57;;
3547;SDS011;1788;49.400;11.092;2023-02-19T15:29:30;3.43;;;2.87;;
3547;SDS011;1788;49.400;11.092;2023-02-19T15:31:58;7.37;;;5.13;;
3547;SDS011;1788;49.400;11.092;2023-02-19T15:34:25;3.77;;;3.00;;
3547;SDS011;1788;49.400;11.092;2023-02-19T15:36:54;5.10;;;3.30;;
3547;SDS011;1788;49.400;11.092;2023-02-19T15:39:19;2.83;;;2.63;;
3547;SDS011;1788;49.400;11.092;2023-02-19T15:41:48;3.50;;;2.43;;
3547;SDS011;1788;49.400;11.092;2023-02-19T15:46:39;3.47;;;2.20;;
3547;SDS011;1788;49.400;11.092;2023-02-19T15:49:06;2.07;;;1.93;;
3547;SDS011;1788;49.400;11.092;2023-02-19T15:51:34;2.30;;;2.17;;
3547;SDS011;1788;49.400;11.092;2023-02-19T15:54:00;3.20;;;2.43;;
3547;SDS011;1788;49.400;11.092;2023-02-19T15:56:26;4.60;;;2.80;;
3547;SDS011;1788;49.400;11.092;2023-02-19T15:58:54;2.70;;;2.00;;
3547;SDS011;1788;49.400;11.092;2023-02-19T16:01:20;3.33;;;2.17;;
3547;SDS011;1788;49.400;11.092;2023-02-19T16:03:45;2.73;;;2.47;;
3547;SDS011;1788;49.400;11.092;2023-02-19T16:06:13;4.40;;;2.37;;
3547;SDS011;1788;49.400;11.092;2023-02-19T16:08:39;4.00;;;2.67;;
3547;SDS011;1788;49.400;11.092;2023-02-19T16:11:06;2.93;;;2.60;;
3547;SDS011;1788;49.400;11.092;2023-02-19T16:13:32;3.23;;;2.67;;
3547;SDS011;1788;49.400;11.092;2023-02-19T16:18:25;3.23;;;2.43;;
3547;SDS011;1788;49.400;11.092;2023-02-19T16:20:51;3.40;;;2.90;;
3547;SDS011;1788;49.400;11.092;2023-02-19T16:23:18;4.17;;;3.70;;
3547;SDS011;1788;49.400;11.092;2023-02-19T16:25:45;4.00;;;3.00;;
3547;SDS011;1788;49.400;11.092;2023-02-19T16:30:39;2.30;;;2.10;;
3547;SDS011;1788;49.400;11.092;2023-02-19T16:37:59;2.40;;;2.10;;
3547;SDS011;1788;49.400;11.092;2023-02-19T16:45:20;4.70;;;2.90;;
3547;SDS011;1788;49.400;11.092;2023-02-19T16:47:47;3.37;;;2.93;;
3547;SDS011;1788;49.400;11.092;2023-02-19T16:50:14;5.73;;;3.83;;
3547;SDS011;1788;49.400;11.092;2023-02-19T16:57:34;5.83;;;3.13;;
3547;SDS011;1788;49.400;11.092;2023-02-19T17:00:01;3.80;;;2.57;;
3547;SDS011;1788;49.400;11.092;2023-02-19T17:02:28;7.03;;;3.53;;
3547;SDS011;1788;49.400;11.092;2023-02-19T17:04:55;4.30;;;2.97;;
3547;SDS011;1788;49.400;11.092;2023-02-19T17:07:22;4.73;;;2.77;;
3547;SDS011;1788;49.400;11.092;2023-02-19T17:09:49;4.20;;;2.80;;
3547;SDS011;1788;49.400;11.092;2023-02-19T17:12:16;5.33;;;3.40;;
3547;SDS011;1788;49.400;11.092;2023-02-19T17:14:43;4.97;;;3.03;;
3547;SDS011;1788;49.400;11.092;2023-02-19T17:17:10;3.80;;;2.80;;
3547;SDS011;1788;49.400;11.092;2023-02-19T17:19:36;4.00;;;3.47;;
3547;SDS011;1788;49.400;11.092;2023-02-19T17:22:03;3.23;;;2.93;;
3547;SDS011;1788;49.400;11.092;2023-02-19T17:24:29;5.43;;;3.77;;
3547;SDS011;1788;49.400;11.092;2023-02-19T17:26:57;5.63;;;3.77;;
3547;SDS011;1788;49.400;11.092;2023-02-19T17:29:23;3.97;;;3.10;;
3547;SDS011;1788;49.400;11.092;2023-02-19T17:31:50;5.47;;;3.07;;
3547;SDS011;1788;49.400;11.092;2023-02-19T17:34:17;5.10;;;3.90;;
3547;SDS011;1788;49.400;11.092;2023-02-19T17:36:43;6.23;;;3.50;;
3547;SDS011;1788;49.400;11.092;2023-02-19T17:39:11;5.23;;;3.53;;
3547;SDS011;1788;49.400;11.092;2023-02-19T17:41:36;6.03;;;4.70;;
3547;SDS011;1788;49.400;11.092;2023-02-19T17:44:03;8.10;;;5.17;;
3547;SDS011;1788;49.400;11.092;2023-02-19T17:46:30;7.13;;;4.90;;
3547;SDS011;1788;49.400;11.092;2023-02-19T17:48:56;8.17;;;5.03;;
3547;SDS011;1788;49.400;11.092;2023-02-19T17:51:23;11.80;;;6.63;;
3547;SDS011;1788;49.400;11.092;2023-02-19T17:53:50;6.57;;;4.67;;
3547;SDS011;1788;49.400;11.092;2023-02-19T17:56:17;13.77;;;7.20;;
3547;SDS011;1788;49.400;11.092;2023-02-19T17:58:43;8.73;;;5.27;;
3547;SDS011;1788;49.400;11.092;2023-02-19T18:01:09;16.70;;;8.60;;
3547;SDS011;1788;49.400;11.092;2023-02-19T18:03:36;5.57;;;4.43;;
3547;SDS011;1788;49.400;11.092;2023-02-19T18:06:03;5.23;;;3.97;;
3547;SDS011;1788;49.400;11.092;2023-02-19T18:08:29;4.87;;;4.20;;
3547;SDS011;1788;49.400;11.092;2023-02-19T18:10:56;4.30;;;3.90;;
3547;SDS011;1788;49.400;11.092;2023-02-19T18:13:22;6.10;;;3.83;;
3547;SDS011;1788;49.400;11.092;2023-02-19T18:15:49;6.33;;;4.37;;
3547;SDS011;1788;49.400;11.092;2023-02-19T18:18:16;8.00;;;4.57;;
3547;SDS011;1788;49.400;11.092;2023-02-19T18:20:42;5.93;;;4.83;;
3547;SDS011;1788;49.400;11.092;2023-02-19T18:23:09;6.00;;;3.70;;
3547;SDS011;1788;49.400;11.092;2023-02-19T18:25:36;6.17;;;4.30;;
3547;SDS011;1788;49.400;11.092;2023-02-19T18:28:02;6.20;;;3.90;;
3547;SDS011;1788;49.400;11.092;2023-02-19T18:30:29;9.37;;;4.90;;
3547;SDS011;1788;49.400;11.092;2023-02-19T18:32:56;5.10;;;3.73;;
3547;SDS011;1788;49.400;11.092;2023-02-19T18:35:22;5.30;;;3.50;;
3547;SDS011;1788;49.400;11.092;2023-02-19T18:40:15;4.07;;;3.90;;
3547;SDS011;1788;49.400;11.092;2023-02-19T18:42:42;4.10;;;3.13;;
3547;SDS011;1788;49.400;11.092;2023-02-19T18:45:08;6.47;;;3.83;;
3547;SDS011;1788;49.400;11.092;2023-02-19T18:47:36;5.93;;;3.77;;